Time;durP1;ratioP1;P1;durP2;ratioP2;P2;SDS_P1;SDS_P2;PMS_P1;PMS_P2;Temp;Humidity;BMP_temperature;BMP_pressure;BME280_temperature;BME280_humidity;BME280_pressure;Samples;Min_cycle;Max_cycle;Signal;HPM_P1;HPM_P2
2022/08/14 00:02:05;;;;;;;10.77;6.85;;;;;;;;;;5032101;28;20025;-73
2022/08/14 00:04:32;;;;;;;10.60;6.15;;;;;;;;;;5031971;28;20029;-74
2022/08/14 00:06:58;;;;;;;10.50;6.18;;;;;;;;;;5031810;28;20041;-75
2022/08/14 00:09:24;;;;;;;12.02;6.32;;;;;;;;;;5032117;28;20060;-75
2022/08/14 00:11:50;;;;;;;9.80;6.00;;;;;;;;;;5032781;28;20048;-73
2022/08/14 00:14:17;;;;;;;10.25;6.50;;;;;;;;;;5032776;28;20030;-74
2022/08/14 00:16:43;;;;;;;11.13;6.30;;;;;;;;;;5032932;28;20363;-74
2022/08/14 00:19:09;;;;;;;10.02;6.32;;;;;;;;;;5032494;28;20116;-73
2022/08/14 00:21:36;;;;;;;11.50;6.15;;;;;;;;;;5033002;28;20029;-74
2022/08/14 00:24:03;;;;;;;11.05;6.55;;;;;;;;;;5031739;28;20125;-75
2022/08/14 00:26:29;;;;;;;13.48;6.65;;;;;;;;;;5031677;28;20061;-75
2022/08/14 00:28:55;;;;;;;11.80;7.13;;;;;;;;;;5033149;28;20029;-73
2022/08/14 00:31:22;;;;;;;10.10;6.70;;;;;;;;;;5032348;28;20068;-74
2022/08/14 00:33:49;;;;;;;11.65;6.63;;;;;;;;;;5031195;28;20103;-73
2022/08/14 00:36:15;;;;;;;10.55;6.72;;;;;;;;;;5031305;28;20026;-74
2022/08/14 00:38:41;;;;;;;12.85;6.25;;;;;;;;;;5032473;28;20482;-73
2022/08/14 00:41:07;;;;;;;12.65;6.97;;;;;;;;;;5031100;28;20017;-74
2022/08/14 00:43:34;;;;;;;11.32;6.45;;;;;;;;;;5031286;28;20030;-73
2022/08/14 00:46:05;;;;;;;9.82;6.45;;;;;;;;;;5032261;28;20079;-73
2022/08/14 00:48:31;;;;;;;10.05;6.45;;;;;;;;;;5030878;28;20061;-74
2022/08/14 00:50:58;;;;;;;13.10;7.35;;;;;;;;;;5031047;28;20375;-73
2022/08/14 00:53:24;;;;;;;11.13;6.68;;;;;;;;;;5030918;28;20059;-74
2022/08/14 00:55:54;;;;;;;12.38;6.63;;;;;;;;;;5030881;28;20028;-74
2022/08/14 00:58:29;;;;;;;9.98;6.70;;;;;;;;;;5030830;28;20029;-75
2022/08/14 01:00:56;;;;;;;15.25;6.82;;;;;;;;;;5031007;28;20044;-75
2022/08/14 01:03:22;;;;;;;12.48;7.45;;;;;;;;;;5032074;28;20109;-74
2022/08/14 01:05:50;;;;;;;10.52;6.82;;;;;;;;;;5032456;28;20530;-74
2022/08/14 01:08:19;;;;;;;12.98;6.97;;;;;;;;;;5031288;28;20386;-75
2022/08/14 01:10:49;;;;;;;13.98;7.93;;;;;;;;;;5030702;28;20049;-76
2022/08/14 01:13:25;;;;;;;17.90;6.80;;;;;;;;;;5031106;28;20137;-74
2022/08/14 01:15:56;;;;;;;13.40;7.03;;;;;;;;;;5031739;28;20505;-74
2022/08/14 01:21:13;;;;;;;10.93;6.97;;;;;;;;;;5032269;28;20063;-74
2022/08/14 01:23:44;;;;;;;13.90;7.15;;;;;;;;;;5031865;28;20104;-74
2022/08/14 01:26:11;;;;;;;11.98;6.80;;;;;;;;;;5030649;28;20048;-75
2022/08/14 01:28:37;;;;;;;11.70;6.90;;;;;;;;;;5030479;28;20022;-74
2022/08/14 01:31:14;;;;;;;12.15;7.20;;;;;;;;;;5031720;28;20052;-74
2022/08/14 01:33:44;;;;;;;11.40;6.68;;;;;;;;;;5030440;28;20398;-74
2022/08/14 01:36:10;;;;;;;15.82;7.75;;;;;;;;;;5030444;28;20028;-75
2022/08/14 01:38:37;;;;;;;14.27;7.38;;;;;;;;;;5030520;28;20030;-74
2022/08/14 01:41:07;;;;;;;10.85;7.15;;;;;;;;;;5030405;28;20067;-74
2022/08/14 01:43:42;;;;;;;12.32;7.50;;;;;;;;;;5031600;28;20025;-74
2022/08/14 01:46:10;;;;;;;12.80;8.07;;;;;;;;;;5030283;28;20030;-75
2022/08/14 01:48:37;;;;;;;12.52;8.10;;;;;;;;;;5030497;28;20393;-75
2022/08/14 01:51:03;;;;;;;12.80;7.60;;;;;;;;;;5030325;28;20025;-74
2022/08/14 01:53:30;;;;;;;12.32;7.50;;;;;;;;;;5030238;28;20052;-74
2022/08/14 01:55:57;;;;;;;10.00;6.07;;;;;;;;;;5030576;28;20029;-74
2022/08/14 01:58:26;;;;;;;13.38;7.93;;;;;;;;;;5030470;28;20025;-75
2022/08/14 02:00:53;;;;;;;12.60;7.53;;;;;;;;;;5030277;28;20032;-74
2022/08/14 02:03:21;;;;;;;12.63;7.60;;;;;;;;;;5030386;28;20041;-73
2022/08/14 02:05:48;;;;;;;14.55;8.10;;;;;;;;;;5030330;28;20060;-73
2022/08/14 02:08:15;;;;;;;12.48;7.55;;;;;;;;;;5030372;28;20076;-74
2022/08/14 02:10:42;;;;;;;12.88;8.13;;;;;;;;;;5029886;28;20112;-74
2022/08/14 02:13:10;;;;;;;12.07;7.82;;;;;;;;;;5030342;28;20046;-75
2022/08/14 02:15:39;;;;;;;12.10;7.53;;;;;;;;;;5032218;28;20514;-74
2022/08/14 02:18:06;;;;;;;12.02;8.07;;;;;;;;;;5033826;28;20060;-74
2022/08/14 02:20:32;;;;;;;13.10;7.70;;;;;;;;;;5033818;28;20558;-76
2022/08/14 02:22:59;;;;;;;12.65;8.05;;;;;;;;;;5033706;28;20083;-75
2022/08/14 02:25:25;;;;;;;12.23;7.60;;;;;;;;;;5033535;28;20025;-75
2022/08/14 02:27:55;;;;;;;13.07;8.02;;;;;;;;;;5034798;28;20390;-75
2022/08/14 02:30:25;;;;;;;14.48;8.38;;;;;;;;;;5033419;28;20026;-73
2022/08/14 02:32:51;;;;;;;11.85;7.57;;;;;;;;;;5034884;28;20693;-74
2022/08/14 02:35:18;;;;;;;12.13;7.88;;;;;;;;;;5033503;28;20029;-75
2022/08/14 02:37:48;;;;;;;14.20;8.30;;;;;;;;;;5034825;28;20025;-75
2022/08/14 02:40:17;;;;;;;14.65;8.70;;;;;;;;;;5033190;28;20017;-74
2022/08/14 02:42:43;;;;;;;12.65;8.00;;;;;;;;;;5033464;28;20026;-74
2022/08/14 02:45:09;;;;;;;13.63;8.38;;;;;;;;;;5034474;28;20028;-74
2022/08/14 02:47:35;;;;;;;13.27;8.20;;;;;;;;;;5033261;28;20032;-73
2022/08/14 02:50:01;;;;;;;12.68;8.48;;;;;;;;;;5033080;28;20079;-73
2022/08/14 02:52:28;;;;;;;16.42;9.05;;;;;;;;;;5033082;28;20108;-73
2022/08/14 02:54:56;;;;;;;12.80;8.13;;;;;;;;;;5034428;28;20083;-75
2022/08/14 02:57:23;;;;;;;14.80;9.15;;;;;;;;;;5033198;28;20075;-77
2022/08/14 02:59:50;;;;;;;13.50;8.98;;;;;;;;;;5033094;28;20033;-75
2022/08/14 03:02:17;;;;;;;15.52;9.05;;;;;;;;;;5033064;28;20478;-76
2022/08/14 03:04:43;;;;;;;16.45;10.05;;;;;;;;;;5033119;28;20026;-76
2022/08/14 03:07:09;;;;;;;17.50;10.73;;;;;;;;;;5033062;28;20041;-75
2022/08/14 03:09:39;;;;;;;16.75;10.38;;;;;;;;;;5033157;28;20036;-75
2022/08/14 03:12:05;;;;;;;22.08;10.73;;;;;;;;;;5032661;28;20084;-77
2022/08/14 03:14:40;;;;;;;17.23;10.07;;;;;;;;;;5033096;28;20115;-75
2022/08/14 03:17:09;;;;;;;19.00;11.38;;;;;;;;;;5032902;28;20026;-75
2022/08/14 03:19:35;;;;;;;21.90;11.32;;;;;;;;;;5032677;28;20092;-75
2022/08/14 03:22:01;;;;;;;19.25;10.85;;;;;;;;;;5034026;28;20162;-74
2022/08/14 03:24:28;;;;;;;20.33;11.65;;;;;;;;;;5032433;28;20390;-75
2022/08/14 03:26:55;;;;;;;18.70;10.95;;;;;;;;;;5033623;28;20029;-76
2022/08/14 03:29:21;;;;;;;17.98;10.02;;;;;;;;;;5032443;28;20025;-75
2022/08/14 03:31:50;;;;;;;18.45;10.82;;;;;;;;;;5032193;28;20041;-75
2022/08/14 03:34:17;;;;;;;20.23;11.20;;;;;;;;;;5032292;28;20038;-75
2022/08/14 03:36:44;;;;;;;19.10;11.80;;;;;;;;;;5032274;28;20079;-75
2022/08/14 03:39:11;;;;;;;19.40;11.63;;;;;;;;;;5032394;28;20021;-75
2022/08/14 03:41:37;;;;;;;18.80;11.25;;;;;;;;;;5032288;28;20021;-75
2022/08/14 03:44:05;;;;;;;19.35;11.35;;;;;;;;;;5033558;28;20030;-75
2022/08/14 03:46:32;;;;;;;21.60;11.25;;;;;;;;;;5032147;28;20021;-75
2022/08/14 03:49:01;;;;;;;19.70;11.40;;;;;;;;;;5032151;28;20033;-75
2022/08/14 03:51:28;;;;;;;16.17;9.82;;;;;;;;;;5031987;28;20120;-75
2022/08/14 03:53:56;;;;;;;17.30;11.35;;;;;;;;;;5031999;28;20072;-75
2022/08/14 03:56:22;;;;;;;20.52;12.50;;;;;;;;;;5032306;28;20045;-75
2022/08/14 03:58:50;;;;;;;17.33;11.35;;;;;;;;;;5031926;28;20040;-74
2022/08/14 04:01:22;;;;;;;19.58;12.05;;;;;;;;;;5031883;28;20393;-76
2022/08/14 04:03:48;;;;;;;20.40;12.05;;;;;;;;;;5032140;28;20543;-75
2022/08/14 04:06:15;;;;;;;21.38;12.20;;;;;;;;;;5032031;28;20060;-75
2022/08/14 04:08:42;;;;;;;21.00;11.73;;;;;;;;;;5031469;28;20130;-75
2022/08/14 04:11:09;;;;;;;19.00;11.73;;;;;;;;;;5031521;28;20318;-74
2022/08/14 04:13:40;;;;;;;21.63;10.90;;;;;;;;;;5031628;28;20116;-75
2022/08/14 04:16:09;;;;;;;17.20;10.18;;;;;;;;;;5031633;28;20457;-75
2022/08/14 04:18:40;;;;;;;20.92;11.02;;;;;;;;;;5031726;28;20032;-75
2022/08/14 04:21:06;;;;;;;17.27;10.80;;;;;;;;;;5032881;28;20021;-76
2022/08/14 04:23:34;;;;;;;20.48;10.98;;;;;;;;;;5031411;28;20079;-76
2022/08/14 04:26:00;;;;;;;19.13;11.40;;;;;;;;;;5033370;28;20080;-75
2022/08/14 04:28:27;;;;;;;22.75;11.43;;;;;;;;;;5031173;28;20029;-73
2022/08/14 04:30:53;;;;;;;19.15;11.70;;;;;;;;;;5031177;28;20490;-73
2022/08/14 04:33:23;;;;;;;17.45;10.68;;;;;;;;;;5031156;28;20064;-76
2022/08/14 04:35:50;;;;;;;19.35;11.48;;;;;;;;;;5031060;28;20026;-74
2022/08/14 04:43:46;;;;;;;17.33;10.30;;;;;;;;;;5032606;28;20033;-74
2022/08/14 04:46:14;;;;;;;16.63;10.23;;;;;;;;;;5032339;28;20025;-76
2022/08/14 04:48:40;;;;;;;14.63;8.75;;;;;;;;;;5032186;28;20100;-75
2022/08/14 04:51:11;;;;;;;17.10;10.43;;;;;;;;;;5030716;28;20403;-75
2022/08/14 04:53:40;;;;;;;18.70;10.40;;;;;;;;;;5032368;28;20042;-72
2022/08/14 04:56:06;;;;;;;15.32;8.95;;;;;;;;;;5031018;28;20022;-76
2022/08/14 04:58:34;;;;;;;15.50;9.07;;;;;;;;;;5032608;28;20033;-76
2022/08/14 05:01:01;;;;;;;18.13;8.50;;;;;;;;;;5032150;28;20055;-75
2022/08/14 05:03:30;;;;;;;15.32;8.98;;;;;;;;;;5031217;28;20493;-75
2022/08/14 05:05:57;;;;;;;13.02;7.50;;;;;;;;;;5030398;28;20107;-76
2022/08/14 05:08:24;;;;;;;13.30;7.50;;;;;;;;;;5030662;28;20044;-76
2022/08/14 05:10:54;;;;;;;11.25;6.95;;;;;;;;;;5030904;28;20041;-77
2022/08/14 05:13:22;;;;;;;12.27;6.78;;;;;;;;;;5031469;28;20124;-78
2022/08/14 05:15:48;;;;;;;11.60;6.70;;;;;;;;;;5033055;28;20024;-75
2022/08/14 05:18:21;;;;;;;9.32;5.03;;;;;;;;;;5031767;28;20107;-79
2022/08/14 05:20:51;;;;;;;8.60;4.63;;;;;;;;;;5030954;28;20112;-74
2022/08/14 05:23:19;;;;;;;9.98;4.38;;;;;;;;;;5031458;28;20040;-78
2022/08/14 05:25:50;;;;;;;7.15;3.85;;;;;;;;;;5031492;28;20060;-74
2022/08/14 05:28:18;;;;;;;8.73;4.32;;;;;;;;;;5032535;28;20026;-80
2022/08/14 05:30:48;;;;;;;11.68;4.45;;;;;;;;;;5034576;28;20196;-79
2022/08/14 05:33:17;;;;;;;8.80;4.10;;;;;;;;;;5032365;28;20130;-79
2022/08/14 05:35:43;;;;;;;7.60;4.15;;;;;;;;;;5032491;28;20440;-76
2022/08/14 05:38:12;;;;;;;7.18;4.20;;;;;;;;;;5030945;28;20029;-76
2022/08/14 05:40:38;;;;;;;7.03;4.35;;;;;;;;;;5033229;28;20021;-74
2022/08/14 05:43:05;;;;;;;8.18;4.22;;;;;;;;;;5031852;28;20025;-74
2022/08/14 05:45:32;;;;;;;7.07;4.43;;;;;;;;;;5033642;28;20508;-76
2022/08/14 05:47:58;;;;;;;7.78;4.30;;;;;;;;;;5034377;28;20026;-76
2022/08/14 05:50:24;;;;;;;8.32;3.92;;;;;;;;;;5035534;28;20029;-73
2022/08/14 05:52:52;;;;;;;6.30;3.65;;;;;;;;;;5036669;28;20041;-73
2022/08/14 05:55:19;;;;;;;7.45;4.15;;;;;;;;;;5034109;28;20025;-73
2022/08/14 05:57:49;;;;;;;6.63;3.67;;;;;;;;;;5036856;28;20029;-81
2022/08/14 06:00:16;;;;;;;7.68;3.92;;;;;;;;;;5037398;28;20022;-73
2022/08/14 06:02:42;;;;;;;7.63;4.05;;;;;;;;;;5037074;28;20029;-74
2022/08/14 06:05:08;;;;;;;5.78;3.15;;;;;;;;;;5035634;28;20130;-74
2022/08/14 06:07:37;;;;;;;6.82;3.58;;;;;;;;;;5035493;28;20033;-74
2022/08/14 06:10:05;;;;;;;5.65;3.78;;;;;;;;;;5035444;28;20026;-75
2022/08/14 06:12:31;;;;;;;8.18;3.50;;;;;;;;;;5035134;28;20099;-74
2022/08/14 06:14:58;;;;;;;5.35;3.42;;;;;;;;;;5036580;28;20033;-79
2022/08/14 06:17:24;;;;;;;6.32;3.50;;;;;;;;;;5036573;28;20444;-85
2022/08/14 06:19:50;;;;;;;5.15;3.42;;;;;;;;;;5037014;28;20088;-77
2022/08/14 06:22:17;;;;;;;6.10;3.38;;;;;;;;;;5036047;28;20086;-78
2022/08/14 06:24:43;;;;;;;6.35;3.80;;;;;;;;;;5037049;28;20025;-81
2022/08/14 06:27:09;;;;;;;6.80;3.90;;;;;;;;;;5035606;28;20037;-82
2022/08/14 06:29:36;;;;;;;6.50;3.00;;;;;;;;;;5036754;28;20025;-79
2022/08/14 06:32:03;;;;;;;4.53;3.15;;;;;;;;;;5035130;28;20065;-78
2022/08/14 06:34:29;;;;;;;5.53;3.20;;;;;;;;;;5035257;28;20076;-76
2022/08/14 06:36:55;;;;;;;7.63;3.38;;;;;;;;;;5037453;28;20052;-76
2022/08/14 06:39:22;;;;;;;5.75;3.20;;;;;;;;;;5034823;28;20032;-79
2022/08/14 06:41:48;;;;;;;5.28;3.50;;;;;;;;;;5034924;28;20056;-76
2022/08/14 06:44:14;;;;;;;5.43;3.22;;;;;;;;;;5036163;28;20079;-77
2022/08/14 06:46:41;;;;;;;5.20;3.05;;;;;;;;;;5035290;28;20026;-78
2022/08/14 06:49:07;;;;;;;7.97;3.45;;;;;;;;;;5036747;28;20029;-75
2022/08/14 06:51:34;;;;;;;7.75;3.53;;;;;;;;;;5035044;28;20018;-79
2022/08/14 06:54:00;;;;;;;4.38;3.00;;;;;;;;;;5034189;28;20029;-78
2022/08/14 06:56:26;;;;;;;5.88;3.53;;;;;;;;;;5034871;28;20075;-78
2022/08/14 06:58:53;;;;;;;6.65;3.33;;;;;;;;;;5034547;28;20034;-77
2022/08/14 07:06:48;;;;;;;4.97;3.17;;;;;;;;;;5035613;28;20227;-79
2022/08/14 07:09:15;;;;;;;5.43;2.92;;;;;;;;;;5034729;28;20029;-79
2022/08/14 07:11:41;;;;;;;5.10;3.05;;;;;;;;;;5034096;28;20046;-79
2022/08/14 07:14:07;;;;;;;4.57;2.97;;;;;;;;;;5034318;28;20083;-76
2022/08/14 07:16:33;;;;;;;5.47;3.33;;;;;;;;;;5034092;28;20022;-76
2022/08/14 07:18:59;;;;;;;5.32;3.03;;;;;;;;;;5035477;28;20034;-76
2022/08/14 07:21:25;;;;;;;5.50;3.17;;;;;;;;;;5034957;28;20086;-81
2022/08/14 07:23:52;;;;;;;5.70;3.47;;;;;;;;;;5036512;28;20100;-83
2022/08/14 07:26:18;;;;;;;4.63;3.00;;;;;;;;;;5034740;28;20493;-77
2022/08/14 07:28:44;;;;;;;4.60;2.85;;;;;;;;;;5034264;28;20076;-82
2022/08/14 07:31:11;;;;;;;4.57;3.08;;;;;;;;;;5034004;28;20075;-75
2022/08/14 07:33:37;;;;;;;4.47;3.05;;;;;;;;;;5034271;28;20087;-76
2022/08/14 07:36:05;;;;;;;7.00;2.88;;;;;;;;;;5034526;28;20026;-82
2022/08/14 07:38:31;;;;;;;4.47;2.88;;;;;;;;;;5034123;28;20502;-79
2022/08/14 07:40:58;;;;;;;4.15;2.60;;;;;;;;;;5033692;28;20029;-81
2022/08/14 07:43:24;;;;;;;4.18;2.58;;;;;;;;;;5034539;28;20029;-84
2022/08/14 07:45:51;;;;;;;4.90;3.03;;;;;;;;;;5034910;28;20032;-76
2022/08/14 07:48:17;;;;;;;4.70;2.92;;;;;;;;;;5033756;28;20079;-81
2022/08/14 07:50:44;;;;;;;4.85;2.72;;;;;;;;;;5035289;28;20179;-82
2022/08/14 07:53:11;;;;;;;6.28;3.08;;;;;;;;;;5033248;28;20037;-75
2022/08/14 07:55:37;;;;;;;4.40;3.00;;;;;;;;;;5034388;28;20088;-76
2022/08/14 07:58:03;;;;;;;4.30;2.70;;;;;;;;;;5033830;28;20038;-82
2022/08/14 08:00:30;;;;;;;4.70;3.00;;;;;;;;;;5033341;28;20029;-75
2022/08/14 08:02:58;;;;;;;5.55;2.95;;;;;;;;;;5034201;28;20033;-81
2022/08/14 08:05:24;;;;;;;9.63;2.45;;;;;;;;;;5034736;28;20021;-75
2022/08/14 08:07:51;;;;;;;4.40;2.83;;;;;;;;;;5033275;28;20500;-83
2022/08/14 08:10:30;;;;;;;5.45;2.67;;;;;;;;;;5032726;28;20128;-82
2022/08/14 08:13:11;;;;;;;3.95;2.75;;;;;;;;;;5031834;28;20116;-77
2022/08/14 08:15:47;;;;;;;5.95;2.53;;;;;;;;;;5032755;28;20037;-77
2022/08/14 08:18:14;;;;;;;4.57;2.78;;;;;;;;;;5034004;28;20021;-82
2022/08/14 08:20:41;;;;;;;3.65;2.40;;;;;;;;;;5033138;28;20036;-86
2022/08/14 08:23:08;;;;;;;3.63;2.53;;;;;;;;;;5032569;28;20474;-79
2022/08/14 08:25:40;;;;;;;7.30;2.53;;;;;;;;;;5032993;28;20025;-85
2022/08/14 08:28:09;;;;;;;;;;;;;;;;;;5034519;28;20039;-76
2022/08/14 08:30:36;;;;;;;3.42;2.33;;;;;;;;;;5035363;28;20043;-77
2022/08/14 08:33:03;;;;;;;5.22;2.42;;;;;;;;;;5032770;28;20033;-76
2022/08/14 08:35:32;;;;;;;3.95;2.80;;;;;;;;;;5035289;28;20029;-83
2022/08/14 08:38:17;;;;;;;3.92;2.72;;;;;;;;;;5033437;28;20474;-76
2022/08/14 08:40:45;;;;;;;8.25;3.03;;;;;;;;;;5033320;28;20032;-83
2022/08/14 08:43:20;;;;;;;7.53;2.90;;;;;;;;;;5033273;28;20025;-81
2022/08/14 08:45:54;;;;;;;4.65;3.30;;;;;;;;;;5032573;28;20029;-76
2022/08/14 08:48:20;;;;;;;4.55;2.88;;;;;;;;;;5032714;28;20378;-75
2022/08/14 08:50:46;;;;;;;4.72;2.80;;;;;;;;;;5033914;28;20394;-82
2022/08/14 08:53:12;;;;;;;3.63;2.70;;;;;;;;;;5034671;28;20037;-83
2022/08/14 08:55:43;;;;;;;3.80;2.55;;;;;;;;;;5032463;28;20030;-82
2022/08/14 08:58:10;;;;;;;5.88;3.38;;;;;;;;;;5032920;28;20037;-84
2022/08/14 09:00:38;;;;;;;8.93;3.20;;;;;;;;;;5032860;28;20021;-82
2022/08/14 09:03:07;;;;;;;3.95;2.75;;;;;;;;;;5032423;28;20105;-77
2022/08/14 09:05:35;;;;;;;5.97;3.15;;;;;;;;;;5032230;28;20386;-81
2022/08/14 09:08:11;;;;;;;5.22;3.20;;;;;;;;;;5032972;28;20029;-75
2022/08/14 09:10:37;;;;;;;4.45;3.03;;;;;;;;;;5032128;28;20056;-74
2022/08/14 09:13:04;;;;;;;6.03;2.88;;;;;;;;;;5032301;28;20486;-74
2022/08/14 09:15:30;;;;;;;5.43;3.35;;;;;;;;;;5033829;28;20021;-77
2022/08/14 09:17:57;;;;;;;5.38;3.33;;;;;;;;;;5032252;28;20026;-76
2022/08/14 09:20:23;;;;;;;4.22;2.88;;;;;;;;;;5032292;28;20025;-75
2022/08/14 09:22:50;;;;;;;4.78;2.97;;;;;;;;;;5032315;28;20496;-77
2022/08/14 09:25:17;;;;;;;5.75;3.00;;;;;;;;;;5032407;28;20493;-76
2022/08/14 09:27:43;;;;;;;4.55;2.45;;;;;;;;;;5033091;28;20068;-76
2022/08/14 09:30:10;;;;;;;5.18;3.00;;;;;;;;;;5032348;28;20025;-77
2022/08/14 09:32:52;;;;;;;4.95;3.33;;;;;;;;;;5033938;28;20375;-78
2022/08/14 09:35:32;;;;;;;4.75;2.83;;;;;;;;;;5032109;28;20026;-74
2022/08/14 09:37:58;;;;;;;3.80;2.40;;;;;;;;;;5032298;28;20385;-77
2022/08/14 09:40:43;;;;;;;3.50;2.47;;;;;;;;;;5032243;28;20082;-79
2022/08/14 09:43:22;;;;;;;4.97;2.95;;;;;;;;;;5032363;28;20033;-76
2022/08/14 09:45:49;;;;;;;5.45;2.47;;;;;;;;;;5032252;28;20071;-77
2022/08/14 09:48:16;;;;;;;5.55;2.67;;;;;;;;;;5033132;28;20116;-81
2022/08/14 09:50:49;;;;;;;3.50;2.42;;;;;;;;;;5032083;28;20382;-76
2022/08/14 09:53:36;;;;;;;4.55;3.17;;;;;;;;;;5031729;28;20036;-80
2022/08/14 09:56:03;;;;;;;4.55;2.70;;;;;;;;;;5048710;28;20079;-76
2022/08/14 09:58:37;;;;;;;3.33;2.53;;;;;;;;;;5031932;28;20040;-75
2022/08/14 10:01:08;;;;;;;3.63;2.15;;;;;;;;;;5033135;28;20376;-76
2022/08/14 10:03:35;;;;;;;3.30;2.33;;;;;;;;;;5032372;28;20029;-77
2022/08/14 10:06:05;;;;;;;4.15;2.60;;;;;;;;;;5031883;28;20021;-83
2022/08/14 10:08:40;;;;;;;3.28;2.58;;;;;;;;;;5032271;28;20028;-81
2022/08/14 10:11:35;;;;;;;6.78;3.25;;;;;;;;;;5032254;28;20514;-84
2022/08/14 10:14:14;;;;;;;3.90;2.28;;;;;;;;;;5048337;28;20038;-82
2022/08/14 10:16:41;;;;;;;3.08;2.35;;;;;;;;;;5012488;28;20038;-76
2022/08/14 10:19:09;;;;;;;4.82;2.80;;;;;;;;;;5039445;28;20014;-75
2022/08/14 10:21:35;;;;;;;3.45;2.40;;;;;;;;;;5031923;28;20402;-73
2022/08/14 10:24:02;;;;;;;3.65;2.40;;;;;;;;;;5014555;28;20112;-73
2022/08/14 10:26:28;;;;;;;4.28;2.38;;;;;;;;;;5016067;28;20107;-73
2022/08/14 10:28:55;;;;;;;5.63;2.28;;;;;;;;;;5031441;28;20026;-73
2022/08/14 10:31:28;;;;;;;3.45;2.40;;;;;;;;;;5031420;28;20061;-72
2022/08/14 10:34:02;;;;;;;3.25;2.17;;;;;;;;;;5032648;28;20021;-72
2022/08/14 10:36:33;;;;;;;5.03;2.25;;;;;;;;;;5034468;28;20029;-73
2022/08/14 10:39:00;;;;;;;3.10;1.98;;;;;;;;;;5034555;28;20056;-76
2022/08/14 10:41:38;;;;;;;3.20;2.25;;;;;;;;;;5034298;28;20022;-73
2022/08/14 10:44:24;;;;;;;2.95;1.98;;;;;;;;;;5036117;28;20068;-73
2022/08/14 10:46:51;;;;;;;3.50;2.40;;;;;;;;;;5036655;28;20056;-74
2022/08/14 10:49:25;;;;;;;4.68;2.40;;;;;;;;;;5036482;28;20064;-74
2022/08/14 10:52:03;;;;;;;3.75;2.50;;;;;;;;;;5034495;28;20030;-72
2022/08/14 10:54:33;;;;;;;5.30;2.40;;;;;;;;;;5035971;28;20108;-75
2022/08/14 10:57:16;;;;;;;3.50;2.60;;;;;;;;;;5036443;28;20108;-74
2022/08/14 10:59:54;;;;;;;2.92;1.95;;;;;;;;;;5035571;28;20064;-76
2022/08/14 11:02:36;;;;;;;4.32;2.67;;;;;;;;;;5035934;28;20029;-74
2022/08/14 11:05:14;;;;;;;4.10;2.60;;;;;;;;;;5035309;28;20502;-75
2022/08/14 11:07:54;;;;;;;4.50;2.70;;;;;;;;;;5035902;28;20032;-75
2022/08/14 11:10:21;;;;;;;5.60;2.88;;;;;;;;;;5036179;28;20071;-76
2022/08/14 11:12:49;;;;;;;4.88;2.72;;;;;;;;;;5035258;28;20049;-74
2022/08/14 11:15:23;;;;;;;4.45;2.85;;;;;;;;;;5034713;28;20033;-74
2022/08/14 11:17:50;;;;;;;4.32;2.60;;;;;;;;;;5034610;28;20030;-74
2022/08/14 11:20:22;;;;;;;6.03;2.65;;;;;;;;;;5034888;28;20108;-74
2022/08/14 11:22:51;;;;;;;6.82;3.28;;;;;;;;;;5034653;28;20582;-77
2022/08/14 11:25:19;;;;;;;4.93;2.97;;;;;;;;;;5034838;28;20071;-74
2022/08/14 11:27:46;;;;;;;4.30;2.70;;;;;;;;;;5034702;28;20083;-76
2022/08/14 11:30:14;;;;;;;6.32;3.00;;;;;;;;;;5033993;28;20030;-75
2022/08/14 11:32:44;;;;;;;4.03;2.63;;;;;;;;;;5034611;28;20040;-75
2022/08/14 11:35:15;;;;;;;4.85;2.40;;;;;;;;;;5035224;28;20029;-74
2022/08/14 11:37:55;;;;;;;3.92;3.00;;;;;;;;;;5033945;28;20120;-72
2022/08/14 11:40:22;;;;;;;5.18;2.60;;;;;;;;;;5033541;28;20493;-72
2022/08/14 11:42:49;;;;;;;5.40;3.22;;;;;;;;;;5034897;28;20121;-72
2022/08/14 11:45:16;;;;;;;5.28;3.25;;;;;;;;;;5035067;28;20574;-72
2022/08/14 11:47:42;;;;;;;5.07;3.50;;;;;;;;;;5035122;28;20076;-71
2022/08/14 11:50:19;;;;;;;5.88;3.45;;;;;;;;;;5033746;28;20112;-76
2022/08/14 11:52:46;;;;;;;4.38;3.13;;;;;;;;;;5033735;28;20394;-75
2022/08/14 11:55:13;;;;;;;5.63;3.05;;;;;;;;;;5033738;28;20468;-76
2022/08/14 11:57:39;;;;;;;9.65;3.80;;;;;;;;;;5033745;28;20061;-76
2022/08/14 12:00:08;;;;;;;6.32;3.90;;;;;;;;;;5033774;28;20052;-75
2022/08/14 12:02:35;;;;;;;5.30;3.10;;;;;;;;;;5034295;28;20041;-75
2022/08/14 12:05:01;;;;;;;5.13;3.45;;;;;;;;;;5034165;28;20029;-79
2022/08/14 12:07:28;;;;;;;5.25;3.40;;;;;;;;;;5033669;28;20018;-77
2022/08/14 12:10:00;;;;;;;5.32;3.67;;;;;;;;;;5033661;28;20094;-92
2022/08/14 12:12:28;;;;;;;6.25;3.28;;;;;;;;;;5035136;28;20057;-79
2022/08/14 12:15:00;;;;;;;9.07;4.00;;;;;;;;;;5033792;28;20473;-81
2022/08/14 12:17:28;;;;;;;5.55;3.63;;;;;;;;;;5032638;28;20036;-76
2022/08/14 12:20:00;;;;;;;4.88;3.53;;;;;;;;;;5033293;28;20026;-79
2022/08/14 12:22:36;;;;;;;8.87;3.97;;;;;;;;;;5033090;28;20486;-75
2022/08/14 12:25:06;;;;;;;5.75;4.05;;;;;;;;;;5034207;28;20264;-75
2022/08/14 12:27:36;;;;;;;5.70;3.55;;;;;;;;;;5035019;28;20180;-75
2022/08/14 12:30:03;;;;;;;6.40;3.80;;;;;;;;;;5034695;28;20429;-74
2022/08/14 12:32:42;;;;;;;5.82;3.88;;;;;;;;;;5033095;28;20031;-75
2022/08/14 12:35:08;;;;;;;7.55;4.50;;;;;;;;;;5032747;28;20350;-76
2022/08/14 12:37:35;;;;;;;5.95;4.18;;;;;;;;;;5034123;28;20032;-75
2022/08/14 12:40:09;;;;;;;6.65;4.65;;;;;;;;;;5033877;28;20379;-78
2022/08/14 12:42:36;;;;;;;5.97;3.95;;;;;;;;;;5033777;28;20049;-77
2022/08/14 12:45:02;;;;;;;5.90;3.75;;;;;;;;;;5033925;28;20441;-75
2022/08/14 12:47:30;;;;;;;6.22;3.72;;;;;;;;;;5034551;28;20034;-76
2022/08/14 12:49:56;;;;;;;5.18;3.70;;;;;;;;;;5033755;28;20478;-74
2022/08/14 12:52:33;;;;;;;10.45;3.85;;;;;;;;;;5034100;28;20399;-77
2022/08/14 12:55:00;;;;;;;7.10;4.03;;;;;;;;;;5033976;28;20080;-71
2022/08/14 12:57:43;;;;;;;6.05;3.90;;;;;;;;;;5033976;28;20104;-72
2022/08/14 13:00:10;;;;;;;;;;;;;;;;;;5033232;28;20036;-72
2022/08/14 13:02:38;;;;;;;6.78;4.32;;;;;;;;;;5034358;28;20015;-80
2022/08/14 13:05:04;;;;;;;6.57;4.30;;;;;;;;;;5033639;28;20026;-77
2022/08/14 13:07:30;;;;;;;6.15;4.40;;;;;;;;;;5034827;28;20029;-77
2022/08/14 13:09:57;;;;;;;9.88;4.05;;;;;;;;;;5033921;28;20040;-77
2022/08/14 13:12:28;;;;;;;9.23;4.05;;;;;;;;;;5034154;28;20157;-85
2022/08/14 13:14:58;;;;;;;5.22;3.55;;;;;;;;;;5033147;28;20037;-81
2022/08/14 13:17:25;;;;;;;5.20;3.30;;;;;;;;;;5034249;28;20028;-78
2022/08/14 13:19:56;;;;;;;5.20;3.10;;;;;;;;;;5032810;28;20021;-78
2022/08/14 13:22:26;;;;;;;7.82;4.85;;;;;;;;;;5033800;28;20041;-78
2022/08/14 13:24:53;;;;;;;5.07;2.90;;;;;;;;;;5034524;28;20029;-79
2022/08/14 13:27:23;;;;;;;7.55;3.92;;;;;;;;;;5035052;28;20095;-79
2022/08/14 13:29:55;;;;;;;5.32;3.03;;;;;;;;;;5033596;28;20097;-78
2022/08/14 13:32:24;;;;;;;4.63;2.78;;;;;;;;;;5032729;28;20025;-79
2022/08/14 13:34:50;;;;;;;5.10;2.78;;;;;;;;;;5032817;28;20093;-77
2022/08/14 13:37:17;;;;;;;5.25;2.78;;;;;;;;;;5034347;28;20028;-83
2022/08/14 13:39:52;;;;;;;5.00;2.80;;;;;;;;;;5033849;28;20115;-84
2022/08/14 13:42:22;;;;;;;4.38;3.10;;;;;;;;;;5031799;28;20045;-82
2022/08/14 13:44:50;;;;;;;5.50;3.25;;;;;;;;;;5032423;28;20026;-81
2022/08/14 13:47:18;;;;;;;5.85;2.78;;;;;;;;;;5032605;28;20075;-83
2022/08/14 13:49:45;;;;;;;5.22;2.50;;;;;;;;;;5033811;28;20113;-78
2022/08/14 13:52:11;;;;;;;5.32;3.03;;;;;;;;;;5033843;28;20032;-80
2022/08/14 13:54:39;;;;;;;5.68;3.22;;;;;;;;;;5032651;28;20030;-76
2022/08/14 13:57:05;;;;;;;6.28;3.53;;;;;;;;;;5031691;28;20117;-79
2022/08/14 13:59:34;;;;;;;5.30;3.67;;;;;;;;;;5032073;28;20080;-79
2022/08/14 14:02:07;;;;;;;7.93;3.63;;;;;;;;;;5032004;28;20030;-81
2022/08/14 14:04:38;;;;;;;5.38;3.60;;;;;;;;;;5033468;28;20037;-78
2022/08/14 14:07:06;;;;;;;5.55;3.25;;;;;;;;;;5032515;28;20028;-72
2022/08/14 14:09:34;;;;;;;5.82;4.05;;;;;;;;;;5033274;28;20040;-76
2022/08/14 14:12:00;;;;;;;6.57;4.18;;;;;;;;;;5035639;28;20141;-78
2022/08/14 14:14:27;;;;;;;5.80;3.80;;;;;;;;;;5035505;28;20120;-74
2022/08/14 14:16:54;;;;;;;6.68;4.05;;;;;;;;;;5037176;28;20463;-74
2022/08/14 14:19:26;;;;;;;6.18;3.97;;;;;;;;;;5037065;28;20030;-73
2022/08/14 14:21:54;;;;;;;6.05;3.97;;;;;;;;;;5035710;28;20028;-74
2022/08/14 14:24:20;;;;;;;5.60;3.88;;;;;;;;;;5035274;28;20475;-74
2022/08/14 14:26:47;;;;;;;5.22;3.67;;;;;;;;;;5036542;28;20449;-74
2022/08/14 14:29:14;;;;;;;5.47;3.97;;;;;;;;;;5035098;28;20117;-75
2022/08/14 14:31:41;;;;;;;6.93;3.72;;;;;;;;;;5035793;28;20081;-75
2022/08/14 14:34:08;;;;;;;6.43;3.70;;;;;;;;;;5035193;28;20501;-74
2022/08/14 14:36:34;;;;;;;9.07;4.60;;;;;;;;;;5035755;28;20036;-75
2022/08/14 14:39:02;;;;;;;7.00;3.40;;;;;;;;;;5035279;28;20061;-79
2022/08/14 14:41:31;;;;;;;6.65;3.53;;;;;;;;;;5038365;28;20128;-74
2022/08/14 14:43:58;;;;;;;4.80;3.00;;;;;;;;;;5034863;28;20398;-79
2022/08/14 14:46:24;;;;;;;5.25;3.70;;;;;;;;;;5035071;28;20022;-75
2022/08/14 14:48:50;;;;;;;5.72;3.83;;;;;;;;;;5034877;28;20370;-80
2022/08/14 14:51:18;;;;;;;6.57;4.32;;;;;;;;;;5036762;28;20474;-82
2022/08/14 14:53:45;;;;;;;11.65;4.43;;;;;;;;;;5035157;28;20386;-76
2022/08/14 14:56:12;;;;;;;6.45;3.40;;;;;;;;;;5034898;28;20551;-76
2022/08/14 14:58:38;;;;;;;7.57;4.10;;;;;;;;;;5036023;28;20025;-74
2022/08/14 15:01:06;;;;;;;6.53;4.32;;;;;;;;;;5035879;28;20385;-79